createdAt,value
2023-05-25T00:03:20.414Z,8.63
2023-05-25T00:18:24.885Z,8.45
2023-05-25T00:33:27.884Z,8.34
2023-05-25T00:48:30.958Z,8.38
2023-05-25T01:03:37.865Z,8.40
2023-05-25T01:18:41.997Z,8.28
2023-05-25T01:33:45.468Z,8.07
2023-05-25T01:48:57.806Z,7.84
2023-05-25T02:04:01.194Z,7.65
2023-05-25T02:19:04.091Z,7.55
2023-05-25T02:34:06.752Z,7.60
2023-05-25T02:49:09.739Z,8.00
2023-05-25T03:04:12.520Z,8.37
2023-05-25T03:19:15.207Z,8.61
2023-05-25T03:34:18.283Z,8.76
2023-05-25T03:49:21.250Z,8.99
2023-05-25T04:04:24.150Z,9.16
2023-05-25T04:19:27.014Z,9.48
2023-05-25T04:34:29.779Z,9.86
2023-05-25T04:49:32.830Z,10.27
2023-05-25T05:04:37.346Z,10.65
2023-05-25T05:19:40.186Z,10.96
2023-05-25T05:34:42.822Z,11.31
2023-05-25T05:49:45.558Z,11.58
2023-05-25T06:04:48.144Z,12.04
2023-05-25T06:19:50.991Z,12.35
2023-05-25T06:34:55.487Z,12.58
2023-05-25T06:49:58.633Z,13.06
2023-05-25T07:05:02.772Z,13.51
2023-05-25T07:20:06.666Z,14.03
2023-05-25T07:35:09.633Z,14.49
2023-05-25T07:50:14.077Z,14.96
2023-05-25T08:05:17.249Z,15.45
2023-05-25T08:20:20.177Z,16.00
2023-05-25T08:35:23.260Z,16.35
2023-05-25T08:50:27.472Z,16.64
2023-05-25T09:05:30.163Z,16.92
2023-05-25T09:20:33.117Z,16.97
2023-05-25T09:35:36.116Z,17.62
2023-05-25T09:50:39.547Z,18.68
2023-05-25T10:05:42.230Z,20.92
2023-05-25T10:20:50.583Z,22.63
2023-05-25T10:36:02.984Z,22.42
2023-05-25T10:51:14.317Z,22.20
2023-05-25T11:06:18.720Z,21.85
2023-05-25T11:21:27.419Z,22.06
2023-05-25T11:36:33.603Z,22.16
2023-05-25T11:51:38.025Z,22.07
2023-05-25T12:06:40.857Z,21.81
2023-05-25T12:21:44.757Z,21.86
2023-05-25T12:36:52.657Z,21.72
2023-05-25T12:51:56.370Z,22.29
2023-05-25T13:06:59.029Z,21.89
2023-05-25T13:22:02.479Z,22.17
2023-05-25T13:37:06.162Z,21.79
2023-05-25T13:52:08.877Z,21.98
2023-05-25T14:07:12.388Z,21.91
2023-05-25T14:22:15.390Z,22.11
2023-05-25T14:37:18.175Z,22.64
2023-05-25T14:52:21.530Z,22.56
2023-05-25T15:07:24.211Z,22.09
2023-05-25T15:22:27.702Z,22.68
2023-05-25T15:37:30.511Z,22.59
2023-05-25T15:52:33.224Z,22.12
2023-05-25T16:07:36.054Z,21.51
2023-05-25T16:22:38.765Z,21.21
2023-05-25T16:37:41.477Z,20.88
2023-05-25T16:52:44.463Z,20.53
2023-05-25T17:07:47.181Z,20.32
2023-05-25T17:22:49.989Z,19.92
2023-05-25T17:37:52.709Z,19.58
2023-05-25T17:52:55.622Z,19.19
2023-05-25T18:07:58.504Z,18.88
2023-05-25T18:23:03.330Z,18.48
2023-05-25T18:38:09.041Z,17.92
2023-05-25T18:53:11.971Z,17.16
2023-05-25T19:08:16.188Z,16.34
2023-05-25T19:23:19.648Z,15.60
2023-05-25T19:38:26.623Z,14.93
2023-05-25T19:53:32.544Z,14.26
2023-05-25T20:08:36.845Z,13.67
2023-05-25T20:23:39.533Z,13.20
2023-05-25T20:38:43.459Z,12.76
2023-05-25T20:53:46.566Z,12.36
2023-05-25T21:08:50.629Z,12.04
2023-05-25T21:23:53.466Z,11.89
2023-05-25T21:38:56.423Z,11.71
2023-05-25T21:54:00.132Z,11.55
2023-05-25T22:09:02.944Z,11.62
2023-05-25T22:24:05.639Z,11.63
2023-05-25T22:39:09.004Z,11.60
2023-05-25T22:54:13.215Z,11.61
2023-05-25T23:09:16.248Z,11.55
2023-05-25T23:24:18.842Z,11.31
2023-05-25T23:39:21.587Z,11.10
2023-05-25T23:54:24.174Z,11.06
